Time;durP1;ratioP1;P1;durP2;ratioP2;P2;SDS_P1;SDS_P2;PMS_P1;PMS_P2;Temp;Humidity;BMP_temperature;BMP_pressure;BME280_temperature;BME280_humidity;BME280_pressure;Samples;Min_cycle;Max_cycle;Signal;HPM_P1;HPM_P2
2023/03/22 00:00:38;;;;;;;;;5.83;5.00;;;;;13.51;64.53;101129.47;2020577;28;2734651;-75
2023/03/22 00:01:52;;;;;;;;;5.50;5.33;;;;;13.52;64.69;101135.59;2021657;28;2748226;-75
2023/03/22 00:03:06;;;;;;;;;9.17;8.17;;;;;13.49;64.67;101134.81;2046017;28;2732549;-75
2023/03/22 00:04:16;;;;;;;;;8.67;5.67;;;;;13.47;64.46;101128.75;1995879;28;2743036;-75
2023/03/22 00:05:29;;;;;;;;;8.00;6.00;;;;;13.48;64.92;101125.16;2034705;28;3458582;-75
2023/03/22 00:06:42;;;;;;;;;7.50;7.50;;;;;13.46;64.54;101126.13;2053524;27;2740906;-75
2023/03/22 00:07:58;;;;;;;;;7.83;6.33;;;;;13.44;64.61;101123.56;2032087;27;2741936;-75
2023/03/22 00:09:09;;;;;;;;;7.67;6.33;;;;;13.43;64.75;101127.16;1986851;28;3450264;-75
2023/03/22 00:10:19;;;;;;;;;5.33;5.33;;;;;13.43;64.36;101127.16;2027539;28;2741905;-75
2023/03/22 00:11:30;;;;;;;;;9.00;7.00;;;;;13.41;64.55;101120.19;2027808;28;2731049;-75
2023/03/22 00:12:41;;;;;;;;;7.67;6.67;;;;;13.40;64.46;101127.25;2044179;28;2738802;-75
2023/03/22 00:13:52;;;;;;;;;6.33;5.00;;;;;13.38;64.33;101121.19;1996672;28;2746094;-75
2023/03/22 00:15:06;;;;;;;;;6.80;6.80;;;;;13.37;64.40;101128.22;2045597;28;2733638;-75
2023/03/22 00:16:20;;;;;;;;;7.67;5.33;;;;;13.36;64.63;101120.34;2021597;28;2739873;-75
2023/03/22 00:17:35;;;;;;;;;9.17;6.17;;;;;13.35;64.50;101123.94;2021767;28;2744010;-75
2023/03/22 00:18:48;;;;;;;;;8.50;6.33;;;;;13.33;64.53;101124.00;2021307;28;2741294;-75
2023/03/22 00:20:05;;;;;;;;;7.50;6.00;;;;;13.33;64.15;101117.84;2021321;28;2740925;-75
2023/03/22 00:21:18;;;;;;;;;6.50;5.17;;;;;13.30;64.62;101105.63;2021258;28;2746176;-75
2023/03/22 00:22:31;;;;;;;;;6.83;4.17;;;;;13.27;64.30;101106.59;2020355;28;2749248;-75
2023/03/22 00:23:43;;;;;;;;;7.00;6.00;;;;;13.26;64.29;101110.16;1995150;28;3450229;-75
2023/03/22 00:24:56;;;;;;;;;5.00;5.00;;;;;13.25;64.32;101105.81;2045450;28;2746582;-75
2023/03/22 00:26:08;;;;;;;;;5.00;5.00;;;;;13.24;64.33;101104.06;1994787;28;3465881;-75
2023/03/22 00:27:21;;;;;;;;;7.33;5.33;;;;;13.23;64.25;101105.00;2044822;28;2738838;-75
2023/03/22 00:28:35;;;;;;;;;7.00;5.17;;;;;13.22;64.24;101111.19;2019900;28;2742415;-75
2023/03/22 00:29:51;;;;;;;;;7.50;4.67;;;;;13.22;64.29;101099.78;2020789;28;2742973;-75
2023/03/22 00:31:03;;;;;;;;;5.00;4.00;;;;;13.22;64.29;101097.13;1995738;28;2752836;-75
2023/03/22 00:32:16;;;;;;;;;8.67;6.33;;;;;13.20;64.33;101089.28;2044943;28;2750261;-75
2023/03/22 00:33:30;;;;;;;;;6.67;5.33;;;;;13.19;64.00;101089.31;2023813;28;2745087;-75
2023/03/22 00:34:44;;;;;;;;;10.33;6.00;;;;;13.17;64.27;101092.03;2024101;27;2753366;-75
2023/03/22 00:35:58;;;;;;;;;4.00;4.00;;;;;13.16;64.20;101087.69;2004452;28;2749336;-75
2023/03/22 00:37:11;;;;;;;;;6.83;4.00;;;;;13.16;63.96;101103.53;2047875;28;2739892;-75
2023/03/22 00:38:21;;;;;;;;;7.67;5.00;;;;;13.15;64.02;101091.25;2003494;27;2739871;-75
2023/03/22 00:39:32;;;;;;;;;9.00;5.00;;;;;13.13;64.31;101087.81;2049770;28;2734628;-75
2023/03/22 00:40:46;;;;;;;;;7.50;6.33;;;;;13.13;64.08;101090.44;2013173;28;2746127;-75
2023/03/22 00:41:59;;;;;;;;;2.00;2.00;;;;;13.12;64.08;101086.06;2013937;28;2732585;-75
2023/03/22 00:43:10;;;;;;;;;5.67;4.33;;;;;13.08;63.96;101085.34;1980307;28;2747148;-75
2023/03/22 00:44:20;;;;;;;;;9.00;5.33;;;;;13.07;63.98;101088.03;2022290;28;2755553;-75
2023/03/22 00:45:31;;;;;;;;;7.67;4.00;;;;;13.05;63.89;101083.69;2031854;28;2746098;-75
2023/03/22 00:46:42;;;;;;;;;4.00;4.00;;;;;13.04;64.18;101084.59;2032030;28;2754430;-75
2023/03/22 00:47:53;;;;;;;;;6.67;5.33;;;;;13.04;63.91;101083.72;2043137;28;2746105;-75
2023/03/22 00:49:06;;;;;;;;;5.33;3.00;;;;;13.03;64.01;101076.75;2022432;28;2743995;-75
2023/03/22 00:50:20;;;;;;;;;4.17;4.00;;;;;13.03;64.08;101079.38;2020644;28;2738835;-74
2023/03/22 00:51:30;;;;;;;;;4.33;3.33;;;;;13.03;64.43;101076.75;1994961;28;2746085;-74
2023/03/22 00:52:41;;;;;;;;;6.33;2.00;;;;;13.00;63.65;101075.06;2042770;28;2751362;-75
2023/03/22 00:53:54;;;;;;;;;7.50;3.00;;;;;12.99;63.64;101070.69;2036671;28;2749558;-75
2023/03/22 00:55:08;;;;;;;;;3.67;3.00;;;;;12.97;63.69;101067.28;2020640;28;2754437;-75
2023/03/22 00:56:21;;;;;;;;;3.67;2.83;;;;;12.98;63.83;101078.69;2020862;28;2732616;-75
2023/03/22 00:57:35;;;;;;;;;5.83;3.33;;;;;12.97;63.90;101079.59;2020230;28;2750291;-75
2023/03/22 00:58:48;;;;;;;;;7.50;4.17;;;;;12.96;63.61;101076.13;2020497;28;2746097;-75
2023/03/22 01:00:09;;;;;;;;;3.00;3.00;;;;;12.95;63.85;101074.38;2021313;28;2728406;-75
2023/03/22 01:01:22;;;;;;;;;3.50;2.33;;;;;12.94;63.74;101076.16;2021579;28;2733655;-75
2023/03/22 01:02:36;;;;;;;;;4.83;4.00;;;;;12.94;63.58;101077.94;2020214;28;2741923;-75
2023/03/22 01:03:49;;;;;;;;;4.00;3.00;;;;;12.93;63.43;101071.81;2021660;28;2736201;-75
2023/03/22 01:05:03;;;;;;;;;6.00;2.00;;;;;12.92;63.75;101069.22;2026854;28;2752393;-75
2023/03/22 01:06:17;;;;;;;;;4.00;3.00;;;;;12.92;63.52;101070.09;2025127;27;2748174;-75
2023/03/22 01:07:27;;;;;;;;;5.00;3.67;;;;;12.90;63.60;101065.78;1997334;28;2750335;-75
2023/03/22 01:08:39;;;;;;;;;4.33;2.00;;;;;12.90;63.82;101074.56;2051678;27;2752341;-75
2023/03/22 01:09:52;;;;;;;;;2.17;2.17;;;;;12.90;63.28;101068.41;2021135;28;2754471;-75
2023/03/22 01:11:07;;;;;;;;;4.00;2.00;;;;;12.87;63.96;101066.75;2020234;28;2748197;-75
2023/03/22 01:12:20;;;;;;;;;3.00;2.50;;;;;12.86;63.29;101064.19;2020413;28;2753401;-75
2023/03/22 01:13:38;;;;;;;;;4.00;4.00;;;;;12.86;63.33;101069.47;2021027;28;2750251;-74
2023/03/22 01:14:51;;;;;;;;;5.50;3.50;;;;;12.85;63.11;101067.72;2021746;28;2735731;-75
2023/03/22 01:16:05;;;;;;;;;2.83;1.50;;;;;12.85;63.47;101065.97;2022741;28;2726310;-75
2023/03/22 01:17:19;;;;;;;;;4.00;3.00;;;;;12.83;63.24;101054.59;2020299;28;2746094;-75
2023/03/22 01:18:32;;;;;;;;;4.67;3.83;;;;;12.83;63.28;101054.59;2020980;28;2742533;-75
2023/03/22 01:19:45;;;;;;;;;4.17;1.33;;;;;12.82;63.38;101052.88;2026953;28;2744032;-74
2023/03/22 01:20:59;;;;;;;;;2.50;2.50;;;;;12.82;63.36;101052.88;2022894;28;2736732;-75
2023/03/22 01:22:12;;;;;;;;;3.50;3.33;;;;;12.81;63.39;101054.69;2025191;27;2744045;-75
2023/03/22 01:23:26;;;;;;;;;5.50;2.33;;;;;12.78;62.84;101044.22;2035075;27;2745551;-75
2023/03/22 01:24:39;;;;;;;;;3.00;1.67;;;;;12.80;63.33;101049.44;2021342;28;2745064;-74
2023/03/22 01:25:52;;;;;;;;;5.33;3.00;;;;;12.77;63.36;101042.50;2044026;28;2739435;-75
2023/03/22 01:27:06;;;;;;;;;3.17;3.00;;;;;12.74;63.27;101034.69;2019378;28;2745088;-74
2023/03/22 01:28:19;;;;;;;;;4.50;2.17;;;;;12.74;63.11;101034.69;2022787;28;2734641;-75
2023/03/22 01:29:34;;;;;;;;;2.83;2.00;;;;;12.73;63.36;101030.34;2020709;28;2748210;-75
2023/03/22 01:30:47;;;;;;;;;5.17;3.00;;;;;12.70;63.29;101023.41;2021681;28;2739848;-75
2023/03/22 01:32:00;;;;;;;;;3.00;3.00;;;;;12.70;63.21;101025.19;2019813;28;2736760;-75
2023/03/22 01:33:13;;;;;;;;;2.33;1.33;;;;;12.69;63.42;101020.84;2020851;28;2735670;-75
2023/03/22 01:34:27;;;;;;;;;7.33;3.00;;;;;12.69;63.37;101019.03;2027940;27;2746174;-75
2023/03/22 01:35:40;;;;;;;;;3.83;2.50;;;;;12.68;63.50;101019.13;2033979;27;2750272;-75
2023/03/22 01:36:50;;;;;;;;;4.00;3.33;;;;;12.67;63.50;101017.38;1994645;28;2754923;-74
2023/03/22 01:38:02;;;;;;;;;9.33;4.33;;;;;12.67;63.43;101018.25;2043240;28;2753397;-75
2023/03/22 01:39:15;;;;;;;;;5.00;3.00;;;;;12.66;63.58;101010.41;2020813;28;2753389;-75
2023/03/22 01:40:29;;;;;;;;;6.17;3.50;;;;;12.66;63.59;101013.91;2021503;28;2747136;-75
2023/03/22 01:41:42;;;;;;;;;4.83;2.67;;;;;12.65;63.69;101008.66;2021371;28;2738811;-75
2023/03/22 01:42:55;;;;;;;;;2.00;2.00;;;;;12.64;63.62;101007.84;2020960;28;2741264;-75
2023/03/22 01:44:15;;;;;;;;;5.00;2.00;;;;;12.63;63.69;101010.50;2020368;28;2753390;-75
2023/03/22 01:45:38;;;;;;;;;1.33;1.00;;;;;12.62;63.42;101006.16;2017406;28;2728379;-75
2023/03/22 01:46:52;;;;;;;;;2.50;2.33;;;;;12.62;63.57;101008.81;2044543;28;2737782;-75
2023/03/22 01:48:11;;;;;;;;;3.00;2.00;;;;;12.61;63.61;101005.31;1995282;28;2754505;-75
2023/03/22 01:49:29;;;;;;;;;2.17;2.00;;;;;12.60;63.61;101001.81;2044389;28;2739852;-75
2023/03/22 01:50:50;;;;;;;;;2.50;2.50;;;;;12.59;63.51;101001.88;2044283;28;2735718;-75
2023/03/22 01:52:13;;;;;;;;;4.33;2.83;;;;;12.58;63.68;100998.38;2020678;28;2745103;-75
2023/03/22 01:53:27;;;;;;;;;3.00;2.33;;;;;12.56;63.65;100994.94;2048365;28;2749219;-75
2023/03/22 01:54:45;;;;;;;;;2.00;2.00;;;;;12.57;63.59;100991.34;1994601;28;2754470;-75
2023/03/22 01:55:59;;;;;;;;;1.50;0.00;;;;;12.56;63.66;100999.34;2045364;28;2704410;-74
2023/03/22 01:57:13;;;;;;;;;2.00;1.83;;;;;12.55;63.66;100990.56;2044791;28;2732584;-75
2023/03/22 01:58:26;;;;;;;;;2.67;2.67;;;;;12.55;63.65;100998.47;2045341;28;2737758;-75
2023/03/22 01:59:41;;;;;;;;;7.17;2.67;;;;;12.54;63.58;100986.22;2020709;28;2738807;-75
2023/03/22 02:00:53;;;;;;;;;3.00;3.00;;;;;12.54;63.57;100990.63;1994802;28;2754419;-75
2023/03/22 02:02:06;;;;;;;;;3.17;2.00;;;;;12.53;63.36;100981.00;2043590;28;2746079;-75
2023/03/22 02:03:37;;;;;;;;;6.50;4.17;;;;;12.54;63.79;100985.34;2020333;28;2751295;-74
2023/03/22 02:04:56;;;;;;;;;2.67;2.67;;;;;12.53;63.72;100978.34;2021416;28;2733659;-75
2023/03/22 02:06:09;;;;;;;;;2.83;2.00;;;;;12.52;63.62;100982.75;2013830;28;2750253;-75
2023/03/22 02:07:25;;;;;;;;;4.00;2.00;;;;;12.53;63.77;100975.72;1992650;28;2754475;-75
2023/03/22 02:08:42;;;;;;;;;3.00;3.00;;;;;12.52;63.84;100976.66;2044773;28;2737758;-75
2023/03/22 02:09:55;;;;;;;;;1.50;1.50;;;;;12.52;63.88;100974.00;2020483;28;2739841;-75
2023/03/22 02:11:14;;;;;;;;;4.67;2.00;;;;;12.51;63.84;100964.38;2044236;28;2744007;-75
2023/03/22 02:12:38;;;;;;;;;3.00;3.00;;;;;12.50;64.00;100968.78;2020703;28;2741912;-74
2023/03/22 02:14:39;;;;;;;;;3.17;1.67;;;;;12.50;63.78;100966.13;2033942;27;2751370;-74
2023/03/22 02:16:24;;;;;;;;;5.00;2.50;;;;;12.48;63.75;100963.56;2032942;28;2741944;-74
2023/03/22 02:18:10;;;;;;;;;2.17;2.17;;;;;12.46;63.76;100954.00;2010739;28;2744023;-74
2023/03/22 02:19:47;;;;;;;;;5.67;3.67;;;;;12.45;64.28;100950.50;2018601;28;2744125;-75
2023/03/22 02:21:22;;;;;;;;;3.83;2.33;;;;;12.44;63.99;100955.84;2019817;28;2741997;-75
2023/03/22 02:22:57;;;;;;;;;5.67;3.67;;;;;12.42;64.02;100950.59;2020677;28;2740192;-75
2023/03/22 02:24:37;;;;;;;;;4.33;3.33;;;;;12.42;63.98;100944.50;2007362;28;2752337;-75
2023/03/22 02:26:15;;;;;;;;;2.83;2.67;;;;;12.39;63.98;100945.47;2039641;28;2746114;-75
2023/03/22 02:28:04;;;;;;;;;5.00;1.83;;;;;12.38;64.06;100949.88;2053041;27;2741935;-75
2023/03/22 02:29:38;;;;;;;;;6.00;3.67;;;;;12.37;64.09;100937.59;2024947;27;2748202;-75
2023/03/22 02:31:16;;;;;;;;;10.00;2.17;;;;;12.36;64.28;100949.06;2020403;28;2753390;-75
2023/03/22 02:32:52;;;;;;;;;2.67;2.33;;;;;12.34;64.23;100948.28;2035160;27;2749219;-75
2023/03/22 02:34:40;;;;;;;;;5.83;2.17;;;;;12.33;64.31;100941.28;2015968;28;2740906;-75
2023/03/22 02:36:23;;;;;;;;;7.33;2.17;;;;;12.33;64.28;100935.16;2007494;28;2737805;-75
2023/03/22 02:38:12;;;;;;;;;4.00;2.33;;;;;12.32;64.18;100939.53;2020807;28;2735139;-75
2023/03/22 02:39:40;;;;;;;;;3.00;2.33;;;;;12.31;64.28;100935.22;2018733;28;2742976;-75
2023/03/22 02:40:59;;;;;;;;;4.33;2.17;;;;;12.28;64.40;100937.94;2043690;28;2752348;-75
2023/03/22 02:42:35;;;;;;;;;3.50;1.00;;;;;12.27;64.45;100938.88;2020104;28;2747146;-75
2023/03/22 02:44:05;;;;;;;;;4.50;2.00;;;;;12.27;64.38;100937.09;2051068;28;2744091;-75
2023/03/22 02:45:48;;;;;;;;;3.17;2.67;;;;;12.27;64.61;100942.34;2019287;28;2740251;-75
2023/03/22 02:47:07;;;;;;;;;3.00;1.67;;;;;12.27;64.58;100936.25;2015658;28;2741988;-75
2023/03/22 02:48:20;;;;;;;;;4.33;2.00;;;;;12.24;64.57;100931.94;2019922;28;2743033;-74
2023/03/22 02:49:40;;;;;;;;;2.67;2.67;;;;;12.24;64.51;100941.63;2037122;28;2724260;-75
2023/03/22 02:50:59;;;;;;;;;7.00;2.00;;;;;12.25;64.43;100938.06;1995014;28;2754458;-75
2023/03/22 02:52:23;;;;;;;;;2.67;2.50;;;;;12.25;64.66;100945.97;2044358;28;2733625;-75
2023/03/22 02:54:04;;;;;;;;;2.67;2.00;;;;;12.26;64.53;100952.97;1994342;28;2754446;-75
2023/03/22 02:55:25;;;;;;;;;6.50;3.17;;;;;12.26;64.58;100953.84;2043890;28;2749215;-75
2023/03/22 02:56:56;;;;;;;;;2.33;2.00;;;;;12.27;64.50;100946.78;2036106;27;2746114;-74
2023/03/22 02:58:16;;;;;;;;;5.00;3.17;;;;;12.26;64.54;100940.66;2016805;28;2752863;-75
2023/03/22 02:59:32;;;;;;;;;2.83;2.17;;;;;12.26;64.50;100943.28;2013606;28;2748172;-75
2023/03/22 03:00:49;;;;;;;;;3.50;2.17;;;;;12.26;64.57;100952.97;2014030;28;2742977;-74
2023/03/22 03:02:04;;;;;;;;;3.33;1.00;;;;;12.26;64.63;100950.31;2014906;28;2738266;-74
2023/03/22 03:03:19;;;;;;;;;1.83;1.83;;;;;12.27;64.44;100944.16;2037206;28;2746079;-75
2023/03/22 03:04:38;;;;;;;;;2.00;1.83;;;;;12.27;64.40;100946.78;2020751;28;2735695;-75
2023/03/22 03:05:58;;;;;;;;;4.17;2.67;;;;;12.27;64.70;100939.72;2043373;28;2750650;-75
2023/03/22 03:07:16;;;;;;;;;1.50;1.50;;;;;12.27;64.44;100944.16;2021205;28;2737800;-75
2023/03/22 03:08:30;;;;;;;;;8.00;2.00;;;;;12.27;64.44;100936.25;2044035;28;2753398;-75
2023/03/22 03:09:44;;;;;;;;;5.17;2.33;;;;;12.26;64.78;100938.03;2020089;28;2745054;-75
2023/03/22 03:10:57;;;;;;;;;2.67;2.50;;;;;12.26;64.76;100934.53;2043484;28;2746098;-74
2023/03/22 03:12:20;;;;;;;;;5.33;3.00;;;;;12.26;64.68;100942.44;2020940;28;2737773;-75
2023/03/22 03:13:33;;;;;;;;;2.00;2.00;;;;;12.24;64.45;100939.00;2020447;28;2752341;-75
2023/03/22 03:14:46;;;;;;;;;4.00;2.67;;;;;12.23;64.54;100937.25;2019496;28;2754434;-75
2023/03/22 03:16:00;;;;;;;;;3.33;2.00;;;;;12.24;64.77;100950.41;1994687;28;2752325;-75
2023/03/22 03:17:37;;;;;;;;;3.00;2.00;;;;;12.24;64.71;100954.81;2043752;28;2751318;-75
2023/03/22 03:19:01;;;;;;;;;2.50;1.83;;;;;12.23;64.56;100959.22;2044693;28;2739837;-75
2023/03/22 03:20:14;;;;;;;;;3.00;0.83;;;;;12.24;64.76;100957.44;2021491;28;2731536;-75
2023/03/22 03:21:41;;;;;;;;;2.00;1.17;;;;;12.23;64.81;100960.97;2021169;28;2736744;-74
2023/03/22 03:23:07;;;;;;;;;7.50;3.67;;;;;12.24;64.88;100954.81;2022006;28;2750307;-75
2023/03/22 03:24:20;;;;;;;;;5.67;2.83;;;;;12.24;64.75;100952.16;2022295;28;2754427;-75
2023/03/22 03:25:42;;;;;;;;;4.00;2.67;;;;;12.25;64.96;100953.88;1995680;28;2754452;-74
2023/03/22 03:27:01;;;;;;;;;3.50;3.33;;;;;12.26;64.50;100950.31;2046200;28;2737798;-74
2023/03/22 03:28:46;;;;;;;;;2.17;2.00;;;;;12.25;64.92;100946.81;2021215;28;2744052;-75
2023/03/22 03:30:08;;;;;;;;;2.67;2.67;;;;;12.28;64.92;100951.13;2021741;28;2754498;-75
2023/03/22 03:31:59;;;;;;;;;3.17;2.67;;;;;12.27;64.91;100938.88;2022663;28;2737769;-75
2023/03/22 03:33:16;;;;;;;;;1.83;1.83;;;;;12.27;64.99;100942.34;2022277;28;2732588;-75
2023/03/22 03:34:48;;;;;;;;;2.17;2.17;;;;;12.29;64.96;100944.97;2021786;28;2750261;-75
2023/03/22 03:36:07;;;;;;;;;3.67;2.50;;;;;12.30;64.84;100949.28;2022929;28;2733676;-75
2023/03/22 03:37:46;;;;;;;;;3.50;3.50;;;;;12.31;65.01;100950.16;2022528;28;2739841;-75
2023/03/22 03:39:01;;;;;;;;;3.67;2.17;;;;;12.31;65.00;100953.66;2022567;28;2740870;-75
2023/03/22 03:40:20;;;;;;;;;1.50;1.00;;;;;12.32;64.67;100944.81;2021570;28;2740917;-75
2023/03/22 03:41:35;;;;;;;;;2.67;1.83;;;;;12.33;64.67;100949.19;2044459;28;2752375;-75
2023/03/22 03:42:53;;;;;;;;;2.00;2.00;;;;;12.33;64.55;100948.31;1996317;28;2752351;-75
2023/03/22 03:44:06;;;;;;;;;2.83;2.00;;;;;12.35;64.67;100944.72;2044583;28;2748181;-74
2023/03/22 03:45:21;;;;;;;;;1.83;1.67;;;;;12.35;64.73;100949.13;2019611;28;2751329;-75
2023/03/22 03:46:34;;;;;;;;;3.17;2.00;;;;;12.36;64.81;100948.22;2057246;27;2746114;-75
2023/03/22 03:47:55;;;;;;;;;3.00;2.00;;;;;12.36;64.74;100942.94;2024309;28;2754928;-75
2023/03/22 03:49:08;;;;;;;;;2.67;2.67;;;;;12.36;64.64;100941.19;1995873;28;2754447;-75
2023/03/22 03:50:23;;;;;;;;;0.00;0.00;;;;;12.37;64.62;100940.25;2048028;28;2701328;-75
2023/03/22 03:51:54;;;;;;;;;3.67;0.33;;;;;12.38;64.49;100941.97;2045512;28;2740885;-75
2023/03/22 03:53:07;;;;;;;;;3.17;1.67;;;;;12.39;64.43;100934.94;2017036;28;2734637;-75
2023/03/22 03:54:21;;;;;;;;;1.00;1.00;;;;;12.41;64.47;100932.22;2020561;28;2731564;-75
2023/03/22 03:55:35;;;;;;;;;4.67;1.50;;;;;12.40;64.59;100941.03;2045092;28;2750289;-75
2023/03/22 03:56:48;;;;;;;;;4.00;1.17;;;;;12.41;64.18;100945.41;2046007;28;2734023;-75
2023/03/22 03:57:59;;;;;;;;;4.00;3.00;;;;;12.41;64.68;100946.28;2018743;28;2754494;-75
2023/03/22 03:59:11;;;;;;;;;1.00;1.00;;;;;12.41;64.51;100945.41;2044703;28;2730483;-75
2023/03/22 04:00:24;;;;;;;;;2.00;1.67;;;;;12.44;64.36;100942.66;2023136;28;2750819;-75
2023/03/22 04:01:38;;;;;;;;;3.17;2.67;;;;;12.45;64.40;100939.97;2021917;28;2752348;-75
2023/03/22 04:02:49;;;;;;;;;3.00;1.67;;;;;12.46;64.24;100930.28;1995572;28;2753772;-75
2023/03/22 04:04:00;;;;;;;;;3.67;1.33;;;;;12.48;64.31;100929.31;2044841;28;2736727;-75
2023/03/22 04:05:14;;;;;;;;;2.83;1.17;;;;;12.50;64.35;100937.16;2021774;28;2733615;-75
2023/03/22 04:06:28;;;;;;;;;2.00;1.67;;;;;12.51;64.37;100948.56;2053618;28;2745033;-74
2023/03/22 04:07:41;;;;;;;;;1.83;1.00;;;;;12.53;64.40;100921.22;2049793;27;2728391;-75
2023/03/22 04:08:55;;;;;;;;;3.50;2.00;;;;;12.54;64.42;100930.84;2045690;28;2747149;-75
2023/03/22 04:10:08;;;;;;;;;3.33;2.17;;;;;12.56;64.36;100939.56;2021332;28;2746106;-75
2023/03/22 04:11:22;;;;;;;;;2.67;1.17;;;;;12.58;64.06;100934.22;2044672;28;2738788;-75
2023/03/22 04:12:35;;;;;;;;;2.33;1.17;;;;;12.59;64.07;100946.50;2046325;28;2729469;-75
2023/03/22 04:13:48;;;;;;;;;3.00;1.00;;;;;12.60;63.95;100946.44;2021973;28;2727341;-75
2023/03/22 04:15:01;;;;;;;;;2.83;2.00;;;;;12.61;64.00;100942.03;2041186;28;2733603;-75
2023/03/22 04:16:14;;;;;;;;;2.00;2.00;;;;;12.63;63.82;100941.94;2015311;28;2734644;-75
2023/03/22 04:17:28;;;;;;;;;4.67;1.83;;;;;12.64;64.13;100948.94;2021809;28;2737771;-75
2023/03/22 04:18:41;;;;;;;;;1.50;1.33;;;;;12.65;64.10;100953.28;2022756;28;2726764;-75
2023/03/22 04:19:58;;;;;;;;;1.83;1.00;;;;;12.66;64.10;100945.34;2022644;28;2734664;-75
2023/03/22 04:21:12;;;;;;;;;3.83;2.00;;;;;12.68;63.98;100948.78;2045475;28;2742957;-74
2023/03/22 04:22:25;;;;;;;;;0.83;0.83;;;;;12.69;63.81;100939.09;2022944;28;2722169;-75
2023/03/22 04:23:39;;;;;;;;;7.50;2.00;;;;;12.70;63.86;100935.53;2045201;28;2750242;-75
2023/03/22 04:24:53;;;;;;;;;1.00;1.00;;;;;12.72;63.86;100941.59;2022535;28;2722150;-75
2023/03/22 04:26:06;;;;;;;;;2.00;1.00;;;;;12.72;63.96;100936.31;2046009;28;2731531;-75
2023/03/22 04:27:21;;;;;;;;;1.00;1.00;;;;;12.74;64.13;100936.28;2022865;28;2724229;-74
2023/03/22 04:28:34;;;;;;;;;2.00;1.00;;;;;12.76;63.96;100937.94;2045567;28;2729428;-75
2023/03/22 04:29:47;;;;;;;;;2.00;1.50;;;;;12.76;63.72;100937.94;2013436;28;2754439;-75
2023/03/22 04:31:02;;;;;;;;;5.17;1.83;;;;;12.78;63.61;100946.63;2014577;28;2736714;-74
2023/03/22 04:32:21;;;;;;;;;1.83;1.00;;;;;12.81;63.78;100943.03;2015528;28;2726336;-75
2023/03/22 04:33:38;;;;;;;;;3.33;1.67;;;;;12.82;63.53;100939.44;2045761;28;2728391;-75
2023/03/22 04:34:51;;;;;;;;;3.67;1.50;;;;;12.83;63.70;100939.41;2022542;28;2731519;-75
2023/03/22 04:36:09;;;;;;;;;3.67;1.83;;;;;12.84;63.43;100934.97;2045568;28;2737785;-75
2023/03/22 04:37:25;;;;;;;;;2.00;2.00;;;;;12.83;63.57;100931.50;2022097;28;2738806;-75
2023/03/22 04:38:39;;;;;;;;;3.00;1.33;;;;;12.85;63.99;100928.78;2046576;28;2726303;-75
2023/03/22 04:39:53;;;;;;;;;3.17;1.00;;;;;12.85;63.56;100920.88;2021263;28;2736720;-75
2023/03/22 04:41:06;;;;;;;;;5.33;2.00;;;;;12.85;63.42;100920.88;2015172;28;2744027;-75
2023/03/22 04:42:19;;;;;;;;;1.00;1.00;;;;;12.86;63.69;100929.66;2022360;28;2724225;-74
2023/03/22 04:43:33;;;;;;;;;3.83;2.00;;;;;12.85;63.73;100914.72;2046388;28;2731611;-75
2023/03/22 04:44:46;;;;;;;;;2.67;2.50;;;;;12.85;63.58;100920.00;2022051;28;2725258;-75
2023/03/22 04:46:00;;;;;;;;;1.00;1.00;;;;;12.83;63.26;100922.72;2022098;28;2732537;-75
2023/03/22 04:47:14;;;;;;;;;1.50;1.50;;;;;12.82;64.00;100920.97;2022645;28;2733627;-75
2023/03/22 04:48:28;;;;;;;;;1.67;1.17;;;;;12.81;63.66;100927.19;2023531;28;2725259;-74
2023/03/22 04:49:41;;;;;;;;;1.33;1.00;;;;;12.81;63.51;100917.50;2046571;28;2722140;-75
2023/03/22 04:50:56;;;;;;;;;2.00;0.67;;;;;12.83;63.69;100918.31;2045658;28;2728391;-75
2023/03/22 04:52:10;;;;;;;;;3.00;0.17;;;;;12.83;63.78;100920.94;2045884;28;2734629;-75
2023/03/22 04:53:26;;;;;;;;;2.67;0.83;;;;;12.85;63.50;100926.16;2022364;28;2715880;-75
2023/03/22 04:54:39;;;;;;;;;1.33;1.00;;;;;12.85;63.41;100926.16;2022057;28;2737761;-75
2023/03/22 04:55:55;;;;;;;;;6.67;1.33;;;;;12.86;63.55;100927.00;2045990;28;2732557;-75
2023/03/22 04:57:09;;;;;;;;;2.17;1.33;;;;;12.86;63.37;100921.75;2044247;28;2740893;-75
2023/03/22 04:58:24;;;;;;;;;1.83;1.83;;;;;12.86;63.40;100916.47;2044568;28;2740348;-75
2023/03/22 04:59:37;;;;;;;;;3.00;0.17;;;;;12.85;63.49;100920.00;2022307;28;2724247;-75
2023/03/22 05:00:52;;;;;;;;;4.67;1.83;;;;;12.85;63.41;100920.00;2021339;28;2746102;-75
2023/03/22 05:02:05;;;;;;;;;1.17;0.83;;;;;12.85;63.41;100922.66;2022207;28;2736735;-75
2023/03/22 05:03:20;;;;;;;;;5.50;2.00;;;;;12.83;63.34;100917.44;2044581;28;2732546;-75
2023/03/22 05:04:33;;;;;;;;;2.50;2.00;;;;;12.83;63.38;100918.31;2021485;28;2750393;-75
2023/03/22 05:05:55;;;;;;;;;2.17;1.33;;;;;12.82;63.29;100921.84;2021881;28;2731532;-75
2023/03/22 05:07:09;;;;;;;;;1.17;1.17;;;;;12.82;63.14;100913.94;2021386;28;2727347;-75
2023/03/22 05:08:23;;;;;;;;;2.00;2.00;;;;;12.82;63.47;100916.56;2015302;28;2731515;-75
2023/03/22 05:09:37;;;;;;;;;2.17;1.17;;;;;12.80;63.25;100913.16;2045054;28;2732561;-75
2023/03/22 05:10:55;;;;;;;;;5.00;2.00;;;;;12.81;63.58;100914.88;2021886;28;2741925;-75
2023/03/22 05:12:08;;;;;;;;;5.00;2.00;;;;;12.80;63.55;100907.88;2045172;28;2751315;-75
2023/03/22 05:13:24;;;;;;;;;2.33;1.67;;;;;12.81;63.67;100909.59;2023953;27;2735658;-75
2023/03/22 05:14:37;;;;;;;;;2.33;1.00;;;;;12.81;63.37;100911.38;2021074;28;2731547;-75
2023/03/22 05:15:51;;;;;;;;;1.17;1.00;;;;;12.81;63.50;100916.66;2044635;28;2731504;-75
2023/03/22 05:17:04;;;;;;;;;1.67;1.00;;;;;12.80;63.46;100912.28;2022802;28;2719039;-75
2023/03/22 05:18:19;;;;;;;;;2.33;2.17;;;;;12.80;63.38;100909.63;2045073;28;2739869;-75
2023/03/22 05:19:32;;;;;;;;;1.67;1.67;;;;;12.80;63.54;100912.28;2021725;28;2726318;-75
2023/03/22 05:20:47;;;;;;;;;2.33;1.33;;;;;12.78;63.66;100912.34;2020178;28;2739865;-75
2023/03/22 05:22:00;;;;;;;;;2.33;2.33;;;;;12.79;63.83;100916.69;1995564;28;2754435;-75
2023/03/22 05:23:17;;;;;;;;;3.83;2.00;;;;;12.80;63.93;100922.84;2045503;28;2729463;-75
2023/03/22 05:24:31;;;;;;;;;3.17;3.00;;;;;12.80;63.85;100922.84;2021142;28;2749218;-74
2023/03/22 05:25:45;;;;;;;;;3.83;1.83;;;;;12.81;63.66;100917.50;2021753;28;2740898;-75
2023/03/22 05:26:59;;;;;;;;;2.00;2.00;;;;;12.81;63.58;100916.66;2020132;28;2750257;-75
2023/03/22 05:28:13;;;;;;;;;2.17;2.00;;;;;12.82;63.58;100924.50;2020857;28;2741916;-75
2023/03/22 05:29:27;;;;;;;;;2.00;1.67;;;;;12.82;63.97;100919.22;2044162;28;2744544;-75
2023/03/22 05:30:37;;;;;;;;;2.67;2.67;;;;;12.83;64.00;100923.59;2018262;28;3467968;-75
2023/03/22 05:31:48;;;;;;;;;3.00;1.33;;;;;12.82;63.82;100927.13;2042715;28;2739848;-75
2023/03/22 05:33:02;;;;;;;;;10.33;4.00;;;;;12.82;63.50;100921.84;2017258;28;2772239;-75
2023/03/22 05:34:15;;;;;;;;;2.50;2.50;;;;;12.82;63.80;100927.13;2044133;28;2746106;-75
2023/03/22 05:35:33;;;;;;;;;2.33;1.83;;;;;12.84;63.69;100913.88;2021114;28;2745097;-75
2023/03/22 05:36:43;;;;;;;;;3.00;2.00;;;;;12.82;63.93;100924.50;2023356;28;2750288;-75
2023/03/22 05:37:55;;;;;;;;;3.00;3.00;;;;;12.85;63.86;100920.00;2042211;28;2741920;-75
2023/03/22 05:39:09;;;;;;;;;1.83;1.33;;;;;12.83;63.89;100926.22;2043171;28;2728387;-75
2023/03/22 05:40:23;;;;;;;;;2.00;2.00;;;;;12.85;63.80;100926.16;2019705;28;2750252;-75
2023/03/22 05:41:36;;;;;;;;;3.17;3.17;;;;;12.84;63.72;100919.13;2018793;28;2739940;-75
2023/03/22 05:42:46;;;;;;;;;2.67;2.67;;;;;12.83;63.76;100907.75;1996004;28;2749223;-75
2023/03/22 05:43:58;;;;;;;;;3.00;3.00;;;;;12.81;63.80;100906.09;2043236;28;2752351;-75
2023/03/22 05:45:11;;;;;;;;;3.17;2.00;;;;;12.83;64.03;100912.16;2020625;28;2750277;-75
2023/03/22 05:46:22;;;;;;;;;3.67;2.00;;;;;12.83;63.63;100912.16;1995370;28;2754452;-75
2023/03/22 05:47:33;;;;;;;;;2.33;2.00;;;;;12.82;63.56;100916.56;2042928;28;2754813;-75
2023/03/22 05:48:47;;;;;;;;;4.83;2.33;;;;;12.81;64.14;100909.59;2020132;28;2749266;-75
2023/03/22 05:50:00;;;;;;;;;3.83;3.00;;;;;12.81;63.85;100914.88;2021062;28;2739915;-75